createdAt,value
2022-10-23T00:00:52.651Z,11.86
2022-10-23T00:01:56.303Z,11.85
2022-10-23T00:02:52.570Z,11.82
2022-10-23T00:03:52.512Z,11.78
2022-10-23T00:04:52.494Z,11.79
2022-10-23T00:05:52.511Z,11.80
2022-10-23T00:06:52.462Z,11.80
2022-10-23T00:07:52.472Z,11.79
2022-10-23T00:08:52.453Z,11.82
2022-10-23T00:09:52.432Z,11.83
2022-10-23T00:10:52.454Z,11.82
2022-10-23T00:11:52.433Z,11.78
2022-10-23T00:12:52.415Z,11.76
2022-10-23T00:13:52.385Z,11.76
2022-10-23T00:14:52.400Z,11.80
2022-10-23T00:16:52.354Z,11.80
2022-10-23T00:17:52.356Z,11.79
2022-10-23T00:18:52.356Z,11.82
2022-10-23T00:19:52.563Z,11.85
2022-10-23T00:20:52.350Z,11.82
2022-10-23T00:21:52.315Z,11.79
2022-10-23T00:22:52.298Z,11.76
2022-10-23T00:23:52.278Z,11.73
2022-10-23T00:24:52.290Z,11.72
2022-10-23T00:25:52.266Z,11.69
2022-10-23T00:26:52.247Z,11.69
2022-10-23T00:27:52.244Z,11.67
2022-10-23T00:28:52.238Z,11.69
2022-10-23T00:29:52.218Z,11.69
2022-10-23T00:30:52.225Z,11.65
2022-10-23T00:31:52.220Z,11.62
2022-10-23T00:32:52.177Z,11.61
2022-10-23T00:33:52.168Z,11.58
2022-10-23T00:34:52.459Z,11.60
2022-10-23T00:35:52.167Z,11.58
2022-10-23T00:36:52.139Z,11.58
2022-10-23T00:37:52.151Z,11.58
2022-10-23T00:38:52.131Z,11.57
2022-10-23T00:39:52.109Z,11.57
2022-10-23T00:40:52.120Z,11.58
2022-10-23T00:41:52.097Z,11.61
2022-10-23T00:42:52.080Z,11.58
2022-10-23T00:43:52.068Z,11.55
2022-10-23T00:44:52.072Z,11.55
2022-10-23T00:45:52.058Z,11.52
2022-10-23T00:46:52.028Z,11.51
2022-10-23T00:47:52.018Z,11.51
2022-10-23T00:48:52.028Z,11.51
2022-10-23T00:49:52.249Z,11.49
2022-10-23T00:50:51.996Z,11.49
2022-10-23T00:51:51.997Z,11.44
2022-10-23T00:52:51.977Z,11.43
2022-10-23T00:54:01.172Z,11.47
2022-10-23T00:54:53.209Z,11.49
2022-10-23T00:55:51.938Z,11.47
2022-10-23T00:56:51.949Z,11.49
2022-10-23T00:57:51.928Z,11.49
2022-10-23T00:58:51.900Z,11.47
2022-10-23T00:59:51.874Z,11.46
2022-10-23T01:00:51.888Z,11.44
2022-10-23T01:01:52.223Z,11.47
2022-10-23T01:02:51.860Z,11.47
2022-10-23T01:03:51.831Z,11.47
2022-10-23T01:04:51.911Z,11.44
2022-10-23T01:05:51.849Z,11.46
2022-10-23T01:06:51.807Z,11.44
2022-10-23T01:07:51.800Z,11.43
2022-10-23T01:08:51.801Z,11.44
2022-10-23T01:09:51.779Z,11.46
2022-10-23T01:10:51.762Z,11.43
2022-10-23T01:11:51.761Z,11.44
2022-10-23T01:12:51.744Z,11.42
2022-10-23T01:13:51.744Z,11.42
2022-10-23T01:14:51.742Z,11.42
2022-10-23T01:15:51.718Z,11.42
2022-10-23T01:16:51.695Z,11.39
2022-10-23T01:17:51.883Z,11.39
2022-10-23T01:18:51.693Z,11.40
2022-10-23T01:19:51.669Z,11.40
2022-10-23T01:20:51.663Z,11.39
2022-10-23T01:21:51.685Z,11.39
2022-10-23T01:22:51.657Z,11.37
2022-10-23T01:23:51.625Z,11.36
2022-10-23T01:24:51.606Z,11.35
2022-10-23T01:25:51.614Z,11.29
2022-10-23T01:26:51.837Z,11.28
2022-10-23T01:27:51.573Z,11.25
2022-10-23T01:28:51.583Z,11.25
2022-10-23T01:29:51.564Z,11.24
2022-10-23T01:30:51.526Z,11.25
2022-10-23T01:31:51.559Z,11.24
2022-10-23T01:32:51.516Z,11.24
2022-10-23T01:33:51.530Z,11.21
2022-10-23T01:34:51.498Z,11.18
2022-10-23T01:35:51.578Z,11.18
2022-10-23T01:36:51.481Z,11.18
2022-10-23T01:37:51.467Z,11.17
2022-10-23T01:38:51.521Z,11.19
2022-10-23T01:39:51.456Z,11.22
2022-10-23T01:40:51.446Z,11.21
2022-10-23T01:41:51.415Z,11.22
2022-10-23T01:42:51.418Z,11.21
2022-10-23T01:43:51.404Z,11.22
2022-10-23T01:44:51.411Z,11.22
2022-10-23T01:45:52.127Z,11.22
2022-10-23T01:46:51.376Z,11.24
2022-10-23T01:47:51.367Z,11.25
2022-10-23T01:48:51.354Z,11.25
2022-10-23T01:49:51.356Z,11.25
2022-10-23T01:50:51.346Z,11.24
2022-10-23T01:51:51.307Z,11.27
2022-10-23T01:52:51.327Z,11.27
2022-10-23T01:53:51.289Z,11.25
2022-10-23T01:54:51.343Z,11.25
2022-10-23T01:55:51.349Z,11.29
2022-10-23T01:56:51.532Z,11.29
2022-10-23T01:57:51.239Z,11.29
2022-10-23T01:58:51.228Z,11.29
2022-10-23T01:59:51.228Z,11.29
2022-10-23T02:00:51.210Z,11.29
2022-10-23T02:01:51.337Z,11.29
2022-10-23T02:02:51.196Z,11.32
2022-10-23T02:03:51.196Z,11.29
2022-10-23T02:04:51.240Z,11.29
2022-10-23T02:05:51.489Z,11.36
2022-10-23T02:06:51.155Z,11.35
2022-10-23T02:07:51.138Z,11.37
2022-10-23T02:08:51.127Z,11.39
2022-10-23T02:09:51.129Z,11.37
2022-10-23T02:10:51.122Z,11.36
2022-10-23T02:11:51.089Z,11.37
2022-10-23T02:12:51.080Z,11.37
2022-10-23T02:13:51.080Z,11.36
2022-10-23T02:14:51.074Z,11.37
2022-10-23T02:15:51.098Z,11.40
2022-10-23T02:16:51.040Z,11.39
2022-10-23T02:17:51.021Z,11.39
2022-10-23T02:18:51.011Z,11.37
2022-10-23T02:19:51.005Z,11.39
2022-10-23T02:20:51.023Z,11.37
2022-10-23T02:21:50.994Z,11.37
2022-10-23T02:22:50.966Z,11.39
2022-10-23T02:23:53.713Z,11.40
2022-10-23T02:24:51.941Z,11.37
2022-10-23T02:25:50.975Z,11.37
2022-10-23T02:26:50.951Z,11.43
2022-10-23T02:27:50.913Z,11.44
2022-10-23T02:28:50.901Z,11.42
2022-10-23T02:29:50.893Z,11.44
2022-10-23T02:30:50.893Z,11.44
2022-10-23T02:31:50.866Z,11.43
2022-10-23T02:32:50.849Z,11.43
2022-10-23T02:33:50.846Z,11.44
2022-10-23T02:34:50.876Z,11.44
2022-10-23T02:35:50.844Z,11.46
2022-10-23T02:36:50.812Z,11.47
2022-10-23T02:37:50.801Z,11.49
2022-10-23T02:38:50.785Z,11.47
2022-10-23T02:39:50.799Z,11.47
2022-10-23T02:40:50.803Z,11.47
2022-10-23T02:41:50.745Z,11.47
2022-10-23T02:42:50.753Z,11.47
2022-10-23T02:43:50.738Z,11.46
2022-10-23T02:44:50.750Z,11.44
2022-10-23T02:45:50.785Z,11.46
2022-10-23T02:46:50.707Z,11.44
2022-10-23T02:47:50.953Z,11.46
2022-10-23T02:48:50.676Z,11.47
2022-10-23T02:49:50.667Z,11.51
2022-10-23T02:50:50.674Z,11.52
2022-10-23T02:51:50.648Z,11.52
2022-10-23T02:52:50.636Z,11.51
2022-10-23T02:53:50.665Z,11.51
2022-10-23T02:54:50.623Z,11.51
2022-10-23T02:55:50.645Z,11.52
2022-10-23T02:56:50.863Z,11.51
2022-10-23T02:57:50.587Z,11.49
2022-10-23T02:58:50.568Z,11.51
2022-10-23T02:59:50.567Z,11.52
2022-10-23T03:00:50.558Z,11.55
2022-10-23T03:01:50.628Z,11.55
2022-10-23T03:02:50.518Z,11.55
2022-10-23T03:03:50.520Z,11.55
2022-10-23T03:04:50.511Z,11.57
2022-10-23T03:05:50.728Z,11.58
2022-10-23T03:06:50.477Z,11.60
2022-10-23T03:07:50.488Z,11.65
2022-10-23T03:08:50.450Z,11.69
2022-10-23T03:09:50.458Z,11.67
2022-10-23T03:10:50.461Z,11.64
2022-10-23T03:11:50.433Z,11.62
2022-10-23T03:12:50.407Z,11.62
2022-10-23T03:13:50.406Z,11.62
2022-10-23T03:14:50.390Z,11.60
2022-10-23T03:15:50.391Z,11.61
2022-10-23T03:16:50.370Z,11.61
2022-10-23T03:17:50.368Z,11.62
2022-10-23T03:18:50.357Z,11.64
2022-10-23T03:19:50.338Z,11.61
2022-10-23T03:20:50.370Z,11.65
2022-10-23T03:21:50.310Z,11.72
2022-10-23T03:22:50.305Z,11.75
2022-10-23T03:23:50.321Z,11.72
2022-10-23T03:24:50.281Z,11.70
2022-10-23T03:25:50.468Z,11.67
2022-10-23T03:26:50.250Z,11.70
2022-10-23T03:27:50.262Z,11.70
2022-10-23T03:28:50.272Z,11.70
2022-10-23T03:29:50.231Z,11.70
2022-10-23T03:30:50.222Z,11.70
2022-10-23T03:31:50.228Z,11.70
2022-10-23T03:32:50.182Z,11.69
2022-10-23T03:33:50.195Z,11.69
2022-10-23T03:34:50.176Z,11.72
2022-10-23T03:35:50.186Z,11.69
2022-10-23T03:36:50.179Z,11.69
2022-10-23T03:37:50.147Z,11.70
2022-10-23T03:38:50.131Z,11.69
2022-10-23T03:39:50.132Z,11.67
2022-10-23T03:40:50.142Z,11.69
2022-10-23T03:41:50.100Z,11.70
2022-10-23T03:42:50.081Z,11.72
2022-10-23T03:43:50.075Z,11.72
2022-10-23T03:44:50.335Z,11.72
2022-10-23T03:45:50.064Z,11.72
2022-10-23T03:46:50.038Z,11.70
2022-10-23T03:47:50.031Z,11.70
2022-10-23T03:48:50.023Z,11.69
2022-10-23T03:49:50.017Z,11.65
2022-10-23T03:50:50.004Z,11.64
2022-10-23T03:51:49.984Z,11.62
2022-10-23T03:52:49.992Z,11.61
2022-10-23T03:53:49.952Z,11.58
2022-10-23T03:54:49.956Z,11.58
2022-10-23T03:55:49.944Z,11.60
2022-10-23T03:56:52.521Z,11.60
2022-10-23T03:57:50.926Z,11.60
2022-10-23T03:58:49.912Z,11.60
2022-10-23T03:59:49.898Z,11.61
2022-10-23T04:00:49.923Z,11.58
2022-10-23T04:01:49.965Z,11.57
2022-10-23T04:02:49.865Z,11.57
2022-10-23T04:03:49.846Z,11.54
2022-10-23T04:04:50.130Z,11.54
2022-10-23T04:05:52.226Z,11.54
2022-10-23T04:06:49.814Z,11.52
2022-10-23T04:07:50.079Z,11.49
2022-10-23T04:08:49.831Z,11.47
2022-10-23T04:09:49.776Z,11.46
2022-10-23T04:10:49.776Z,11.51
2022-10-23T04:11:49.770Z,11.54
2022-10-23T04:12:49.756Z,11.58
2022-10-23T04:13:49.747Z,11.58
2022-10-23T04:14:49.748Z,11.58
2022-10-23T04:15:49.735Z,11.60
2022-10-23T04:16:49.710Z,11.58
2022-10-23T04:17:49.710Z,11.62
2022-10-23T04:18:49.687Z,11.67
2022-10-23T04:19:49.670Z,11.70
2022-10-23T04:20:49.687Z,11.70
2022-10-23T04:21:49.662Z,11.73
2022-10-23T04:22:49.649Z,11.78
2022-10-23T04:23:49.630Z,11.80
2022-10-23T04:24:49.631Z,11.82
2022-10-23T04:25:49.621Z,11.82
2022-10-23T04:26:49.619Z,11.82
2022-10-23T04:27:49.589Z,11.82
2022-10-23T04:28:49.580Z,11.82
2022-10-23T04:29:49.578Z,11.83
2022-10-23T04:30:49.677Z,11.85
2022-10-23T04:31:49.552Z,11.85
2022-10-23T04:32:49.531Z,11.83
2022-10-23T04:33:49.518Z,11.83
2022-10-23T04:34:49.514Z,11.85
2022-10-23T04:35:49.511Z,11.86
2022-10-23T04:36:49.483Z,11.86
2022-10-23T04:37:49.483Z,11.88
2022-10-23T04:38:49.470Z,11.90
2022-10-23T04:39:49.461Z,11.94
2022-10-23T04:40:49.484Z,11.94
2022-10-23T04:41:49.431Z,11.94
2022-10-23T04:42:49.430Z,11.94
2022-10-23T04:43:49.421Z,11.94
2022-10-23T04:44:49.402Z,11.91
2022-10-23T04:45:49.401Z,11.90
2022-10-23T04:46:49.394Z,11.91
2022-10-23T04:47:49.355Z,11.91
2022-10-23T04:48:49.359Z,11.91
2022-10-23T04:49:49.627Z,11.91
2022-10-23T04:50:49.348Z,11.91
2022-10-23T04:51:49.327Z,11.90
2022-10-23T04:52:49.313Z,11.91
2022-10-23T04:53:49.302Z,11.88
2022-10-23T04:54:49.272Z,11.88
2022-10-23T04:55:49.302Z,11.90
2022-10-23T04:56:49.266Z,11.88
2022-10-23T04:57:49.277Z,11.86
2022-10-23T04:58:49.243Z,11.85
2022-10-23T04:59:49.254Z,11.83
2022-10-23T05:00:49.267Z,11.83
2022-10-23T05:01:49.246Z,11.82
2022-10-23T05:02:49.210Z,11.82
2022-10-23T05:03:49.182Z,11.80
2022-10-23T05:04:49.162Z,11.79
2022-10-23T05:05:49.184Z,11.75
2022-10-23T05:06:49.226Z,11.73
2022-10-23T05:07:49.156Z,11.73
2022-10-23T05:08:49.154Z,11.75
2022-10-23T05:09:49.395Z,11.73
2022-10-23T05:10:49.141Z,11.73
2022-10-23T05:11:49.094Z,11.73
2022-10-23T05:12:49.103Z,11.73
2022-10-23T05:13:49.070Z,11.75
2022-10-23T05:14:49.070Z,11.76
2022-10-23T05:15:49.107Z,11.76
2022-10-23T05:16:49.051Z,11.75
2022-10-23T05:17:49.027Z,11.72
2022-10-23T05:18:49.040Z,11.70
2022-10-23T05:19:49.007Z,11.69
2022-10-23T05:20:49.015Z,11.65
2022-10-23T05:21:48.996Z,11.65
2022-10-23T05:22:48.990Z,11.65
2022-10-23T05:23:49.039Z,11.64
2022-10-23T05:24:50.566Z,11.60
2022-10-23T05:25:48.973Z,11.57
2022-10-23T05:26:48.927Z,11.52
2022-10-23T05:27:48.930Z,11.51
2022-10-23T05:28:48.929Z,11.49
2022-10-23T05:29:48.888Z,11.46
2022-10-23T05:30:48.907Z,11.42
2022-10-23T05:31:48.868Z,11.40
2022-10-23T05:32:48.879Z,11.39
2022-10-23T05:33:48.878Z,11.37
2022-10-23T05:34:48.838Z,11.40
2022-10-23T05:35:48.865Z,11.40
2022-10-23T05:36:48.841Z,11.42
2022-10-23T05:37:48.818Z,11.43
2022-10-23T05:38:48.800Z,11.40
2022-10-23T05:39:48.802Z,11.39
2022-10-23T05:40:49.040Z,11.35
2022-10-23T05:41:48.764Z,11.33
2022-10-23T05:42:49.006Z,11.35
2022-10-23T05:43:49.009Z,11.35
2022-10-23T05:44:48.739Z,11.33
2022-10-23T05:45:48.750Z,11.33
2022-10-23T05:46:48.720Z,11.33
2022-10-23T05:47:48.711Z,11.39
2022-10-23T05:48:48.791Z,11.33
2022-10-23T05:49:48.690Z,11.29
2022-10-23T05:50:48.674Z,11.29
2022-10-23T05:51:48.663Z,11.27
2022-10-23T05:52:48.650Z,11.24
2022-10-23T05:53:48.644Z,11.24
2022-10-23T05:54:48.626Z,11.25
2022-10-23T05:55:48.618Z,11.32
2022-10-23T05:56:48.612Z,11.29
2022-10-23T05:57:48.583Z,11.28
2022-10-23T05:58:48.581Z,11.25
2022-10-23T05:59:48.858Z,11.22
2022-10-23T06:00:48.571Z,11.24
2022-10-23T06:01:48.665Z,11.25
2022-10-23T06:02:48.544Z,11.25
2022-10-23T06:03:48.525Z,11.24
2022-10-23T06:04:48.503Z,11.25
2022-10-23T06:05:48.515Z,11.25
2022-10-23T06:06:48.503Z,11.25
2022-10-23T06:07:48.472Z,11.25
2022-10-23T06:08:48.484Z,11.21
2022-10-23T06:09:48.462Z,11.19
2022-10-23T06:10:48.463Z,11.15
2022-10-23T06:11:48.423Z,11.14
2022-10-23T06:12:48.445Z,11.11
2022-10-23T06:13:48.483Z,11.10
2022-10-23T06:14:48.404Z,11.07
2022-10-23T06:15:48.400Z,11.07
2022-10-23T06:16:48.395Z,11.09
2022-10-23T06:17:48.374Z,11.07
2022-10-23T06:18:48.355Z,11.06
2022-10-23T06:19:48.365Z,11.07
2022-10-23T06:20:48.356Z,11.14
2022-10-23T06:21:48.339Z,11.15
2022-10-23T06:22:48.345Z,11.17
2022-10-23T06:23:48.328Z,11.19
2022-10-23T06:24:48.306Z,11.24
2022-10-23T06:25:48.287Z,11.25
2022-10-23T06:26:48.280Z,11.25
2022-10-23T06:27:48.265Z,11.29
2022-10-23T06:28:48.274Z,11.33
2022-10-23T06:29:48.246Z,11.37
2022-10-23T06:30:48.256Z,11.42
2022-10-23T06:31:48.204Z,11.43
2022-10-23T06:32:48.195Z,11.44
2022-10-23T06:33:48.186Z,11.46
2022-10-23T06:34:48.176Z,11.46
2022-10-23T06:35:48.202Z,11.49
2022-10-23T06:36:48.159Z,11.52
2022-10-23T06:37:48.145Z,11.55
2022-10-23T06:38:48.202Z,11.60
2022-10-23T06:39:48.122Z,11.67
2022-10-23T06:40:48.112Z,11.75
2022-10-23T06:41:48.128Z,11.78
2022-10-23T06:42:48.079Z,11.82
2022-10-23T06:43:48.090Z,11.83
2022-10-23T06:44:48.068Z,11.86
2022-10-23T06:45:48.072Z,11.91
2022-10-23T06:46:48.310Z,11.95
2022-10-23T06:47:48.039Z,11.98
2022-10-23T06:48:48.020Z,11.98
2022-10-23T06:49:47.999Z,12.02
2022-10-23T06:50:47.997Z,12.05
2022-10-23T06:51:47.999Z,12.12
2022-10-23T06:52:48.112Z,12.17
2022-10-23T06:53:47.967Z,12.21
2022-10-23T06:54:47.958Z,12.27
2022-10-23T06:55:50.190Z,12.29
2022-10-23T06:56:47.939Z,12.34
2022-10-23T06:57:47.941Z,12.38
2022-10-23T06:58:47.897Z,12.41
2022-10-23T06:59:47.900Z,12.45
2022-10-23T07:00:47.933Z,12.49
2022-10-23T07:01:48.064Z,12.53
2022-10-23T07:02:47.859Z,12.57
2022-10-23T07:03:47.866Z,12.60
2022-10-23T07:04:47.851Z,12.68
2022-10-23T07:05:47.841Z,12.71
2022-10-23T07:06:47.852Z,12.79
2022-10-23T07:07:47.894Z,12.86
2022-10-23T07:08:47.800Z,12.90
2022-10-23T07:09:47.802Z,12.92
2022-10-23T07:10:47.793Z,12.95
2022-10-23T07:11:47.770Z,13.00
2022-10-23T07:12:47.761Z,13.04
2022-10-23T07:13:47.752Z,13.08
2022-10-23T07:14:47.732Z,13.12
2022-10-23T07:15:47.722Z,13.14
2022-10-23T07:16:47.713Z,13.17
2022-10-23T07:17:47.830Z,13.22
2022-10-23T07:18:47.768Z,13.22
2022-10-23T07:19:47.692Z,13.23
2022-10-23T07:20:47.712Z,13.25
2022-10-23T07:21:47.894Z,13.28
2022-10-23T07:22:47.653Z,13.30
2022-10-23T07:23:47.632Z,13.32
2022-10-23T07:24:47.640Z,13.36
2022-10-23T07:25:47.608Z,13.36
2022-10-23T07:26:47.640Z,13.39
2022-10-23T07:27:47.765Z,13.44
2022-10-23T07:28:47.583Z,13.46
2022-10-23T07:29:47.583Z,13.45
2022-10-23T07:30:47.579Z,13.46
2022-10-23T07:31:47.585Z,13.51
2022-10-23T07:32:47.543Z,13.54
2022-10-23T07:33:47.524Z,13.60
2022-10-23T07:34:47.517Z,13.66
2022-10-23T07:35:47.512Z,13.70
2022-10-23T07:36:47.491Z,13.78
2022-10-23T07:37:47.528Z,13.79
2022-10-23T07:38:47.952Z,13.81
2022-10-23T07:39:48.472Z,13.85
2022-10-23T07:40:47.455Z,13.89
2022-10-23T07:41:47.427Z,13.95
2022-10-23T07:42:47.426Z,13.99
2022-10-23T07:43:47.434Z,13.99
2022-10-23T07:44:47.388Z,14.03
2022-10-23T07:45:47.436Z,14.04
2022-10-23T07:46:47.378Z,14.07
2022-10-23T07:47:47.479Z,14.09
2022-10-23T07:48:47.397Z,14.12
2022-10-23T07:49:47.480Z,14.12
2022-10-23T07:50:47.330Z,14.17
2022-10-23T07:51:50.514Z,14.20
2022-10-23T07:52:47.453Z,14.20
2022-10-23T07:53:47.296Z,14.20
2022-10-23T07:54:47.276Z,14.21
2022-10-23T07:55:47.299Z,14.24
2022-10-23T07:56:48.128Z,14.24
2022-10-23T07:57:47.248Z,14.25
2022-10-23T07:58:47.289Z,14.27
2022-10-23T07:59:47.239Z,14.33
2022-10-23T08:00:47.233Z,14.37
2022-10-23T08:01:47.308Z,14.43
2022-10-23T08:02:47.221Z,14.45
2022-10-23T08:03:47.187Z,14.51
2022-10-23T08:04:47.151Z,14.55
2022-10-23T08:05:47.160Z,14.58
2022-10-23T08:06:47.178Z,14.62
2022-10-23T08:07:47.222Z,14.70
2022-10-23T08:08:47.136Z,14.77
2022-10-23T08:09:47.110Z,14.81
2022-10-23T08:10:47.122Z,14.86
2022-10-23T08:11:47.119Z,14.92
2022-10-23T08:12:47.072Z,14.96
2022-10-23T08:13:47.053Z,14.96
2022-10-23T08:14:47.118Z,15.02
2022-10-23T08:15:47.072Z,15.02
2022-10-23T08:16:47.051Z,15.06
2022-10-23T08:17:47.022Z,15.10
2022-10-23T08:18:47.024Z,15.14
2022-10-23T08:19:47.011Z,15.21
2022-10-23T08:20:47.024Z,15.28
2022-10-23T08:21:47.205Z,15.29
2022-10-23T08:22:46.963Z,15.34
2022-10-23T08:23:46.933Z,15.39
2022-10-23T08:24:46.967Z,15.47
2022-10-23T08:25:46.979Z,15.53
2022-10-23T08:26:46.925Z,15.62
2022-10-23T08:27:46.925Z,15.68
2022-10-23T08:28:46.947Z,15.78
2022-10-23T08:29:46.882Z,15.84
2022-10-23T08:30:46.925Z,15.90
2022-10-23T08:31:46.857Z,15.93
2022-10-23T08:32:46.857Z,16.00
2022-10-23T08:33:46.865Z,16.07
2022-10-23T08:34:46.835Z,16.14
2022-10-23T08:35:47.035Z,16.20
2022-10-23T08:36:47.348Z,16.24
2022-10-23T08:37:46.869Z,16.33
2022-10-23T08:38:46.856Z,16.43
2022-10-23T08:39:50.084Z,16.49
2022-10-23T08:40:47.772Z,16.53
2022-10-23T08:41:46.776Z,16.61
2022-10-23T08:42:46.740Z,16.61
2022-10-23T08:43:46.725Z,16.64
2022-10-23T08:44:46.749Z,16.71
2022-10-23T08:45:46.699Z,16.76
2022-10-23T08:46:46.689Z,16.76
2022-10-23T08:47:46.689Z,16.79
2022-10-23T08:48:46.702Z,16.81
2022-10-23T08:49:47.678Z,16.81
2022-10-23T08:50:46.653Z,16.81
2022-10-23T08:51:46.658Z,16.81
2022-10-23T08:52:46.944Z,16.79
2022-10-23T08:53:46.629Z,16.81
2022-10-23T08:54:46.600Z,16.82
2022-10-23T08:55:46.611Z,16.79
2022-10-23T08:56:46.602Z,16.79
2022-10-23T08:57:46.569Z,16.78
2022-10-23T08:58:46.680Z,16.82
2022-10-23T08:59:46.560Z,16.81
2022-10-23T09:00:46.670Z,16.86
2022-10-23T09:01:46.741Z,16.91
2022-10-23T09:02:46.805Z,16.93
2022-10-23T09:03:46.500Z,16.97
2022-10-23T09:04:46.500Z,17.01
2022-10-23T09:05:46.492Z,17.06
2022-10-23T09:06:46.471Z,17.15
2022-10-23T09:07:46.574Z,17.25
2022-10-23T09:08:46.454Z,17.33
2022-10-23T09:09:46.441Z,17.31
2022-10-23T09:10:48.153Z,17.36
2022-10-23T09:11:46.497Z,17.44
2022-10-23T09:12:46.414Z,17.52
2022-10-23T09:13:46.394Z,17.56
2022-10-23T09:14:46.376Z,17.64
2022-10-23T09:15:46.405Z,17.63
2022-10-23T09:16:46.373Z,17.55
2022-10-23T09:17:46.851Z,17.55
2022-10-23T09:18:46.644Z,17.58
2022-10-23T09:19:46.333Z,17.59
2022-10-23T09:20:46.363Z,17.63
2022-10-23T09:21:46.325Z,17.62
2022-10-23T09:22:46.306Z,17.66
2022-10-23T09:23:46.295Z,17.71
2022-10-23T09:24:47.658Z,17.74
2022-10-23T09:25:46.274Z,17.71
2022-10-23T09:26:46.242Z,17.72
2022-10-23T09:27:46.253Z,17.70
2022-10-23T09:28:46.247Z,17.62
2022-10-23T09:29:46.223Z,17.43
2022-10-23T09:30:46.224Z,17.26
2022-10-23T09:31:46.226Z,17.18
2022-10-23T09:32:46.174Z,17.22
2022-10-23T09:33:46.177Z,17.25
2022-10-23T09:34:46.156Z,17.28
2022-10-23T09:35:46.197Z,17.28
2022-10-23T09:36:46.171Z,17.22
2022-10-23T09:37:46.204Z,17.15
2022-10-23T09:38:46.098Z,17.14
2022-10-23T09:39:46.107Z,17.11
2022-10-23T09:40:46.099Z,17.07
2022-10-23T09:41:46.068Z,17.08
2022-10-23T09:42:46.070Z,17.08
2022-10-23T09:43:46.250Z,17.04
2022-10-23T09:44:46.029Z,17.11
2022-10-23T09:45:46.089Z,17.07
2022-10-23T09:46:46.173Z,17.04
2022-10-23T09:47:46.068Z,17.07
2022-10-23T09:48:46.016Z,17.04
2022-10-23T09:49:46.106Z,17.07
2022-10-23T09:50:47.020Z,17.11
2022-10-23T09:51:45.944Z,17.12
2022-10-23T09:52:45.992Z,17.16
2022-10-23T09:53:45.933Z,17.14
2022-10-23T09:54:46.045Z,17.07
2022-10-23T09:55:45.912Z,17.08
2022-10-23T09:56:45.900Z,17.12
2022-10-23T09:57:46.208Z,17.08
2022-10-23T09:58:45.920Z,17.12
2022-10-23T09:59:45.843Z,17.14
2022-10-23T10:00:45.900Z,17.16
2022-10-23T10:01:45.892Z,17.18
2022-10-23T10:02:47.041Z,17.22
2022-10-23T10:03:45.804Z,17.26
2022-10-23T10:04:45.798Z,17.30
2022-10-23T10:05:45.818Z,17.30
2022-10-23T10:06:45.789Z,17.23
2022-10-23T10:07:45.958Z,17.16
2022-10-23T10:08:45.753Z,17.21
2022-10-23T10:09:45.779Z,17.25
2022-10-23T10:10:45.735Z,17.21
2022-10-23T10:11:45.704Z,17.21
2022-10-23T10:12:45.723Z,17.21
2022-10-23T10:13:45.713Z,17.22
2022-10-23T10:14:45.672Z,17.25
2022-10-23T10:15:45.687Z,17.25
2022-10-23T10:16:45.663Z,17.28
2022-10-23T10:17:46.002Z,17.25
2022-10-23T10:18:45.635Z,17.30
2022-10-23T10:19:45.878Z,17.33
2022-10-23T10:20:45.616Z,17.36
2022-10-23T10:21:45.595Z,17.33
2022-10-23T10:22:45.602Z,17.30
2022-10-23T10:23:45.577Z,17.23
2022-10-23T10:24:45.548Z,17.19
2022-10-23T10:25:49.761Z,17.14
2022-10-23T10:26:46.549Z,17.15
2022-10-23T10:27:45.873Z,17.11
2022-10-23T10:28:45.519Z,17.11
2022-10-23T10:29:45.562Z,17.12
2022-10-23T10:30:45.499Z,17.11
2022-10-23T10:31:49.337Z,17.14
2022-10-23T10:32:46.480Z,17.08
2022-10-23T10:33:45.450Z,17.03
2022-10-23T10:34:45.450Z,17.04
2022-10-23T10:35:45.449Z,16.96
2022-10-23T10:36:45.412Z,16.93
2022-10-23T10:37:47.428Z,16.96
2022-10-23T10:38:45.669Z,16.97
2022-10-23T10:39:45.666Z,16.96
2022-10-23T10:40:45.390Z,16.98
2022-10-23T10:41:45.367Z,17.00
2022-10-23T10:42:45.371Z,16.93
2022-10-23T10:43:45.331Z,16.94
2022-10-23T10:44:45.323Z,16.96
2022-10-23T10:45:45.327Z,16.98
2022-10-23T10:46:45.301Z,16.98
2022-10-23T10:47:45.541Z,16.97
2022-10-23T10:48:45.291Z,16.98
2022-10-23T10:49:45.283Z,16.98
2022-10-23T10:50:45.293Z,16.88
2022-10-23T10:51:45.263Z,16.82
2022-10-23T10:52:48.363Z,16.82
2022-10-23T10:53:45.235Z,16.79
2022-10-23T10:54:45.224Z,16.79
2022-10-23T10:55:45.228Z,16.71
2022-10-23T10:56:45.209Z,16.70
2022-10-23T10:57:45.456Z,16.67
2022-10-23T10:58:45.179Z,16.64
2022-10-23T10:59:45.164Z,16.60
2022-10-23T11:00:45.214Z,16.57
2022-10-23T11:01:45.277Z,16.52
2022-10-23T11:02:45.174Z,16.52
2022-10-23T11:03:45.206Z,16.53
2022-10-23T11:04:45.124Z,16.52
2022-10-23T11:05:45.148Z,16.50
2022-10-23T11:06:45.129Z,16.49
2022-10-23T11:07:45.360Z,16.46
2022-10-23T11:08:57.181Z,16.49
2022-10-23T11:09:46.065Z,16.50
2022-10-23T11:10:45.040Z,16.53
2022-10-23T11:11:45.066Z,16.53
2022-10-23T11:12:45.015Z,16.52
2022-10-23T11:13:45.007Z,16.56
2022-10-23T11:14:45.012Z,16.56
2022-10-23T11:15:45.052Z,16.57
2022-10-23T11:16:44.972Z,16.57
2022-10-23T11:17:45.410Z,16.58
2022-10-23T11:18:44.958Z,16.60
2022-10-23T11:19:44.968Z,16.63
2022-10-23T11:20:44.930Z,16.63
2022-10-23T11:21:44.921Z,16.67
2022-10-23T11:22:45.187Z,16.73
2022-10-23T11:23:44.901Z,16.76
2022-10-23T11:24:48.175Z,16.82
2022-10-23T11:25:44.898Z,16.88
2022-10-23T11:26:44.861Z,16.94
2022-10-23T11:27:45.314Z,17.00
2022-10-23T11:28:44.900Z,17.06
2022-10-23T11:29:44.842Z,17.14
2022-10-23T11:30:44.811Z,17.16
2022-10-23T11:31:44.823Z,17.21
2022-10-23T11:32:44.802Z,17.26
2022-10-23T11:33:44.871Z,17.36
2022-10-23T11:34:44.808Z,17.41
2022-10-23T11:35:44.766Z,17.48
2022-10-23T11:36:44.743Z,17.56
2022-10-23T11:37:44.955Z,17.62
2022-10-23T11:38:44.723Z,17.66
2022-10-23T11:39:44.733Z,17.72
2022-10-23T11:40:44.744Z,17.75
2022-10-23T11:41:44.967Z,17.78
2022-10-23T11:42:44.976Z,17.82
2022-10-23T11:43:44.674Z,17.84
2022-10-23T11:44:44.715Z,17.90
2022-10-23T11:45:44.945Z,17.95
2022-10-23T11:46:44.644Z,17.95
2022-10-23T11:47:44.631Z,17.99
2022-10-23T11:48:44.625Z,18.08
2022-10-23T11:49:44.607Z,18.11
2022-10-23T11:50:44.587Z,18.10
2022-10-23T11:51:44.575Z,18.08
2022-10-23T11:52:50.749Z,18.11
2022-10-23T11:53:45.547Z,18.14
2022-10-23T11:54:44.836Z,18.14
2022-10-23T11:55:44.552Z,18.11
2022-10-23T11:56:44.653Z,18.15
2022-10-23T11:57:45.448Z,18.11
2022-10-23T11:58:44.892Z,18.11
2022-10-23T11:59:44.507Z,18.14
2022-10-23T12:00:44.639Z,18.14
2022-10-23T12:01:45.333Z,18.15
2022-10-23T12:02:44.784Z,18.11
2022-10-23T12:03:44.878Z,18.12
2022-10-23T12:04:44.818Z,18.18
2022-10-23T12:05:44.441Z,18.23
2022-10-23T12:06:44.426Z,18.27
2022-10-23T12:07:44.552Z,18.20
2022-10-23T12:08:45.469Z,18.20
2022-10-23T12:09:45.310Z,18.17
2022-10-23T12:10:44.359Z,18.21
2022-10-23T12:11:44.353Z,18.23
2022-10-23T12:12:44.351Z,18.30
2022-10-23T12:13:44.321Z,18.36
2022-10-23T12:14:44.354Z,18.39
2022-10-23T12:15:44.598Z,18.45
2022-10-23T12:16:44.313Z,18.48
2022-10-23T12:17:44.506Z,18.48
2022-10-23T12:18:44.273Z,18.42
2022-10-23T12:19:44.281Z,18.44
2022-10-23T12:20:44.243Z,18.42
2022-10-23T12:21:44.233Z,18.45
2022-10-23T12:22:44.225Z,18.44
2022-10-23T12:23:47.274Z,18.44
2022-10-23T12:24:44.213Z,18.50
2022-10-23T12:25:44.216Z,18.50
2022-10-23T12:26:44.177Z,18.54
2022-10-23T12:27:45.063Z,18.57
2022-10-23T12:28:44.167Z,18.54
2022-10-23T12:29:44.485Z,18.54
2022-10-23T12:30:44.163Z,18.54
2022-10-23T12:31:47.035Z,18.54
2022-10-23T12:32:44.440Z,18.54
2022-10-23T12:33:44.095Z,18.58
2022-10-23T12:34:44.088Z,18.62
2022-10-23T12:35:44.076Z,18.62
2022-10-23T12:36:44.077Z,18.65
2022-10-23T12:37:44.054Z,18.69
2022-10-23T12:38:44.044Z,18.73
2022-10-23T12:39:44.054Z,18.70
2022-10-23T12:40:44.015Z,18.60
2022-10-23T12:41:44.000Z,18.66
2022-10-23T12:42:44.264Z,18.65
2022-10-23T12:43:43.986Z,18.63
2022-10-23T12:44:43.995Z,18.63
2022-10-23T12:45:43.972Z,18.65
2022-10-23T12:46:43.964Z,18.66
2022-10-23T12:47:43.965Z,18.67
2022-10-23T12:48:43.948Z,18.72
2022-10-23T12:49:43.947Z,18.76
2022-10-23T12:50:43.911Z,18.73
2022-10-23T12:51:43.899Z,18.75
2022-10-23T12:52:44.287Z,18.80
2022-10-23T12:53:43.869Z,18.78